sensor_id;sensor_type;location;lat;lon;timestamp;pressure;altitude;pressure_sealevel;temperature;humidity
15489;BME280;7846;48.830;9.116;2023-01-15T00:01:32;96662.00;;;15.41;61.66
15489;BME280;7846;48.830;9.116;2023-01-15T00:04:01;96636.34;;;15.10;62.06
15489;BME280;7846;48.830;9.116;2023-01-15T00:06:31;96638.06;;;15.22;62.15
15489;BME280;7846;48.830;9.116;2023-01-15T00:09:21;96638.28;;;15.46;61.92
15489;BME280;7846;48.830;9.116;2023-01-15T00:11:46;96639.47;;;15.00;63.18
15489;BME280;7846;48.830;9.116;2023-01-15T00:14:13;96630.53;;;15.19;62.86
15489;BME280;7846;48.830;9.116;2023-01-15T00:16:38;96637.28;;;15.47;62.23
15489;BME280;7846;48.830;9.116;2023-01-15T00:19:05;96628.97;;;15.37;62.35
15489;BME280;7846;48.830;9.116;2023-01-15T00:21:35;96638.44;;;15.26;62.75
15489;BME280;7846;48.830;9.116;2023-01-15T00:24:00;96631.53;;;15.25;62.40
15489;BME280;7846;48.830;9.116;2023-01-15T00:26:44;96618.28;;;15.50;61.58
15489;BME280;7846;48.830;9.116;2023-01-15T00:29:28;96608.31;;;15.70;61.49
15489;BME280;7846;48.830;9.116;2023-01-15T00:32:04;96613.34;;;15.29;62.64
15489;BME280;7846;48.830;9.116;2023-01-15T00:34:30;96604.31;;;15.36;62.22
15489;BME280;7846;48.830;9.116;2023-01-15T00:36:55;96590.81;;;15.38;62.15
15489;BME280;7846;48.830;9.116;2023-01-15T00:39:21;96583.69;;;15.38;62.08
15489;BME280;7846;48.830;9.116;2023-01-15T00:41:48;96571.16;;;15.45;61.51
15489;BME280;7846;48.830;9.116;2023-01-15T00:44:14;96574.06;;;15.44;61.63
15489;BME280;7846;48.830;9.116;2023-01-15T00:46:39;96568.13;;;15.67;61.26
15489;BME280;7846;48.830;9.116;2023-01-15T00:49:05;96578.06;;;15.71;60.59
15489;BME280;7846;48.830;9.116;2023-01-15T00:51:31;96579.38;;;15.62;60.88
15489;BME280;7846;48.830;9.116;2023-01-15T00:53:56;96566.59;;;15.78;60.71
15489;BME280;7846;48.830;9.116;2023-01-15T00:56:21;96558.47;;;15.54;61.03
15489;BME280;7846;48.830;9.116;2023-01-15T00:58:47;96558.56;;;16.03;59.90
15489;BME280;7846;48.830;9.116;2023-01-15T01:01:13;96544.44;;;16.20;59.37
15489;BME280;7846;48.830;9.116;2023-01-15T01:03:38;96531.63;;;15.62;60.34
15489;BME280;7846;48.830;9.116;2023-01-15T01:06:04;96539.91;;;15.91;60.68
15489;BME280;7846;48.830;9.116;2023-01-15T01:08:32;96541.16;;;15.70;60.42
15489;BME280;7846;48.830;9.116;2023-01-15T01:11:05;96539.69;;;15.92;60.28
15489;BME280;7846;48.830;9.116;2023-01-15T01:13:33;96538.44;;;15.95;60.43
15489;BME280;7846;48.830;9.116;2023-01-15T01:15:59;96532.41;;;15.69;60.37
15489;BME280;7846;48.830;9.116;2023-01-15T01:18:25;96531.22;;;16.02;59.81
15489;BME280;7846;48.830;9.116;2023-01-15T01:20:50;96538.91;;;16.22;59.16
15489;BME280;7846;48.830;9.116;2023-01-15T01:23:16;96541.72;;;15.90;59.51
15489;BME280;7846;48.830;9.116;2023-01-15T01:25:42;96536.91;;;15.69;60.38
15489;BME280;7846;48.830;9.116;2023-01-15T01:28:09;96535.31;;;15.61;60.73
15489;BME280;7846;48.830;9.116;2023-01-15T01:30:36;96521.22;;;16.16;59.30
15489;BME280;7846;48.830;9.116;2023-01-15T01:33:02;96546.47;;;15.70;59.81
15489;BME280;7846;48.830;9.116;2023-01-15T01:35:27;96537.47;;;15.89;60.26
15489;BME280;7846;48.830;9.116;2023-01-15T01:37:52;96541.69;;;16.27;59.21
15489;BME280;7846;48.830;9.116;2023-01-15T01:40:18;96524.81;;;15.91;59.84
15489;BME280;7846;48.830;9.116;2023-01-15T01:42:45;96526.03;;;15.89;60.37
15489;BME280;7846;48.830;9.116;2023-01-15T01:45:33;96512.47;;;15.97;60.53
15489;BME280;7846;48.830;9.116;2023-01-15T01:48:02;96523.84;;;16.16;59.81
15489;BME280;7846;48.830;9.116;2023-01-15T01:50:31;96513.75;;;15.94;59.89
15489;BME280;7846;48.830;9.116;2023-01-15T01:53:03;96518.16;;;16.31;59.56
15489;BME280;7846;48.830;9.116;2023-01-15T01:55:32;96507.78;;;16.83;58.34
15489;BME280;7846;48.830;9.116;2023-01-15T01:57:59;96505.13;;;16.41;59.43
15489;BME280;7846;48.830;9.116;2023-01-15T02:00:29;96501.97;;;16.20;59.89
15489;BME280;7846;48.830;9.116;2023-01-15T02:02:56;96487.28;;;16.18;59.90
15489;BME280;7846;48.830;9.116;2023-01-15T02:05:32;96495.00;;;16.19;60.11
15489;BME280;7846;48.830;9.116;2023-01-15T02:07:59;96493.00;;;16.33;59.78
15489;BME280;7846;48.830;9.116;2023-01-15T02:10:27;96498.75;;;16.30;59.90
15489;BME280;7846;48.830;9.116;2023-01-15T02:13:03;96492.50;;;16.25;60.23
15489;BME280;7846;48.830;9.116;2023-01-15T02:15:37;96474.16;;;16.35;60.18
15489;BME280;7846;48.830;9.116;2023-01-15T02:18:17;96472.56;;;16.45;59.81
15489;BME280;7846;48.830;9.116;2023-01-15T02:20:52;96471.88;;;16.38;60.27
15489;BME280;7846;48.830;9.116;2023-01-15T02:23:37;96474.41;;;16.33;60.29
15489;BME280;7846;48.830;9.116;2023-01-15T02:26:43;96458.72;;;16.32;60.09
15489;BME280;7846;48.830;9.116;2023-01-15T02:29:16;96464.94;;;16.37;60.63
15489;BME280;7846;48.830;9.116;2023-01-15T02:31:48;96462.88;;;16.39;60.67
15489;BME280;7846;48.830;9.116;2023-01-15T02:34:21;96456.03;;;16.74;59.88
15489;BME280;7846;48.830;9.116;2023-01-15T02:36:52;96458.38;;;16.40;60.57
15489;BME280;7846;48.830;9.116;2023-01-15T02:39:22;96464.91;;;16.26;61.03
15489;BME280;7846;48.830;9.116;2023-01-15T02:41:50;96463.38;;;16.72;59.86
15489;BME280;7846;48.830;9.116;2023-01-15T02:44:20;96473.50;;;16.39;60.22
15489;BME280;7846;48.830;9.116;2023-01-15T02:46:47;96445.78;;;16.05;60.94
15489;BME280;7846;48.830;9.116;2023-01-15T02:49:16;96471.78;;;16.57;60.73
15489;BME280;7846;48.830;9.116;2023-01-15T02:51:46;96467.91;;;16.83;60.31
15489;BME280;7846;48.830;9.116;2023-01-15T02:54:15;96457.59;;;16.51;60.59
15489;BME280;7846;48.830;9.116;2023-01-15T02:56:44;96460.16;;;16.28;61.40
15489;BME280;7846;48.830;9.116;2023-01-15T02:59:16;96461.94;;;16.45;61.32
15489;BME280;7846;48.830;9.116;2023-01-15T03:01:47;96466.41;;;16.75;60.87
15489;BME280;7846;48.830;9.116;2023-01-15T03:07:06;96461.16;;;16.68;60.20
15489;BME280;7846;48.830;9.116;2023-01-15T03:09:34;96471.75;;;16.33;61.16
15489;BME280;7846;48.830;9.116;2023-01-15T03:14:44;96462.66;;;16.64;61.09
15489;BME280;7846;48.830;9.116;2023-01-15T03:17:18;96453.53;;;16.60;61.07
15489;BME280;7846;48.830;9.116;2023-01-15T03:20:04;96449.97;;;16.55;60.96
15489;BME280;7846;48.830;9.116;2023-01-15T03:22:32;96439.56;;;16.53;61.04
15489;BME280;7846;48.830;9.116;2023-01-15T03:25:04;96437.63;;;16.72;60.57
15489;BME280;7846;48.830;9.116;2023-01-15T03:27:32;96433.63;;;16.28;61.19
15489;BME280;7846;48.830;9.116;2023-01-15T03:30:09;96437.03;;;16.70;60.54
15489;BME280;7846;48.830;9.116;2023-01-15T03:32:36;96434.72;;;16.50;60.60
15489;BME280;7846;48.830;9.116;2023-01-15T03:35:01;96431.38;;;16.43;61.04
15489;BME280;7846;48.830;9.116;2023-01-15T03:37:28;96435.41;;;16.57;60.39
15489;BME280;7846;48.830;9.116;2023-01-15T03:39:56;96440.75;;;16.69;60.09
15489;BME280;7846;48.830;9.116;2023-01-15T03:42:49;96424.69;;;16.76;59.93
15489;BME280;7846;48.830;9.116;2023-01-15T03:45:40;96428.97;;;16.65;60.51
15489;BME280;7846;48.830;9.116;2023-01-15T03:48:29;96437.84;;;16.47;60.37
15489;BME280;7846;48.830;9.116;2023-01-15T03:51:22;96427.44;;;16.57;60.01
15489;BME280;7846;48.830;9.116;2023-01-15T03:53:54;96432.09;;;16.97;59.23
15489;BME280;7846;48.830;9.116;2023-01-15T04:01:31;96425.81;;;16.56;59.96
15489;BME280;7846;48.830;9.116;2023-01-15T04:03:59;96424.50;;;16.77;59.51
15489;BME280;7846;48.830;9.116;2023-01-15T04:06:28;96415.59;;;16.95;58.75
15489;BME280;7846;48.830;9.116;2023-01-15T04:08:55;96407.50;;;16.90;58.81
15489;BME280;7846;48.830;9.116;2023-01-15T04:11:23;96407.72;;;17.00;58.22
15489;BME280;7846;48.830;9.116;2023-01-15T04:13:49;96406.66;;;16.66;59.27
15489;BME280;7846;48.830;9.116;2023-01-15T04:16:23;96399.84;;;16.70;59.51
15489;BME280;7846;48.830;9.116;2023-01-15T04:18:49;96408.84;;;16.57;59.67
15489;BME280;7846;48.830;9.116;2023-01-15T04:21:15;96409.53;;;16.64;59.70
15489;BME280;7846;48.830;9.116;2023-01-15T04:23:40;96409.66;;;16.69;59.25
15489;BME280;7846;48.830;9.116;2023-01-15T04:26:06;96394.66;;;16.52;60.14
15489;BME280;7846;48.830;9.116;2023-01-15T04:28:32;96404.97;;;16.95;58.99
15489;BME280;7846;48.830;9.116;2023-01-15T04:30:57;96391.44;;;16.61;59.49
15489;BME280;7846;48.830;9.116;2023-01-15T04:33:24;96405.28;;;16.75;59.29
15489;BME280;7846;48.830;9.116;2023-01-15T04:35:50;96386.69;;;16.99;58.51
15489;BME280;7846;48.830;9.116;2023-01-15T04:38:16;96382.66;;;16.73;58.22
15489;BME280;7846;48.830;9.116;2023-01-15T04:40:45;96387.97;;;16.73;58.75
15489;BME280;7846;48.830;9.116;2023-01-15T04:43:29;96392.34;;;16.55;59.68
15489;BME280;7846;48.830;9.116;2023-01-15T04:46:13;96396.59;;;16.56;59.42
15489;BME280;7846;48.830;9.116;2023-01-15T04:48:39;96398.56;;;16.37;60.58
15489;BME280;7846;48.830;9.116;2023-01-15T04:51:05;96398.91;;;16.41;60.68
15489;BME280;7846;48.830;9.116;2023-01-15T04:53:31;96387.03;;;16.43;61.03
15489;BME280;7846;48.830;9.116;2023-01-15T04:56:01;96390.84;;;16.48;60.82
15489;BME280;7846;48.830;9.116;2023-01-15T04:58:27;96387.22;;;16.30;60.99
15489;BME280;7846;48.830;9.116;2023-01-15T05:00:52;96395.06;;;16.25;61.23
15489;BME280;7846;48.830;9.116;2023-01-15T05:03:19;96387.38;;;16.59;60.26
15489;BME280;7846;48.830;9.116;2023-01-15T05:05:44;96395.78;;;16.32;60.93
15489;BME280;7846;48.830;9.116;2023-01-15T05:08:09;96407.56;;;16.36;60.94
15489;BME280;7846;48.830;9.116;2023-01-15T05:10:35;96450.16;;;16.41;61.24
15489;BME280;7846;48.830;9.116;2023-01-15T05:13:01;96470.38;;;15.09;67.73
15489;BME280;7846;48.830;9.116;2023-01-15T05:15:27;96467.28;;;14.37;71.31
15489;BME280;7846;48.830;9.116;2023-01-15T05:17:53;96468.91;;;13.68;74.39
15489;BME280;7846;48.830;9.116;2023-01-15T05:20:18;96493.59;;;13.42;73.72
15489;BME280;7846;48.830;9.116;2023-01-15T05:22:45;96516.81;;;13.00;73.61
15489;BME280;7846;48.830;9.116;2023-01-15T05:25:10;96510.34;;;12.76;73.60
15489;BME280;7846;48.830;9.116;2023-01-15T05:27:36;96491.84;;;12.89;72.96
15489;BME280;7846;48.830;9.116;2023-01-15T05:30:02;96526.78;;;12.51;73.32
15489;BME280;7846;48.830;9.116;2023-01-15T05:32:29;96533.91;;;12.77;73.09
15489;BME280;7846;48.830;9.116;2023-01-15T05:34:55;96510.31;;;12.56;72.27
15489;BME280;7846;48.830;9.116;2023-01-15T05:37:20;96517.03;;;12.58;72.56
15489;BME280;7846;48.830;9.116;2023-01-15T05:39:45;96534.31;;;12.61;71.97
15489;BME280;7846;48.830;9.116;2023-01-15T05:42:11;96528.38;;;12.46;72.10
15489;BME280;7846;48.830;9.116;2023-01-15T05:44:36;96531.44;;;12.56;71.48
15489;BME280;7846;48.830;9.116;2023-01-15T05:47:01;96534.84;;;12.17;71.93
15489;BME280;7846;48.830;9.116;2023-01-15T05:49:30;96532.03;;;12.38;70.62
15489;BME280;7846;48.830;9.116;2023-01-15T05:51:57;96550.31;;;12.53;69.90
15489;BME280;7846;48.830;9.116;2023-01-15T05:54:25;96537.94;;;12.40;70.00
15489;BME280;7846;48.830;9.116;2023-01-15T05:56:52;96554.94;;;12.24;71.13
15489;BME280;7846;48.830;9.116;2023-01-15T05:59:20;96561.88;;;12.39;70.95
15489;BME280;7846;48.830;9.116;2023-01-15T06:01:46;96548.69;;;12.39;69.96
15489;BME280;7846;48.830;9.116;2023-01-15T06:04:12;96554.94;;;12.31;71.06
15489;BME280;7846;48.830;9.116;2023-01-15T06:06:39;96522.47;;;12.30;70.29
15489;BME280;7846;48.830;9.116;2023-01-15T06:09:05;96564.84;;;12.09;71.22
15489;BME280;7846;48.830;9.116;2023-01-15T06:11:31;96566.94;;;12.33;70.10
15489;BME280;7846;48.830;9.116;2023-01-15T06:13:56;96565.91;;;12.28;70.78
15489;BME280;7846;48.830;9.116;2023-01-15T06:16:22;96561.66;;;12.33;70.48
15489;BME280;7846;48.830;9.116;2023-01-15T06:18:47;96576.91;;;12.45;69.92
15489;BME280;7846;48.830;9.116;2023-01-15T06:21:13;96587.31;;;12.05;70.79
15489;BME280;7846;48.830;9.116;2023-01-15T06:23:40;96588.38;;;12.10;70.47
15489;BME280;7846;48.830;9.116;2023-01-15T06:26:10;96579.09;;;12.28;70.25
15489;BME280;7846;48.830;9.116;2023-01-15T06:28:36;96591.81;;;12.11;70.80
15489;BME280;7846;48.830;9.116;2023-01-15T06:31:09;96602.44;;;12.24;69.60
15489;BME280;7846;48.830;9.116;2023-01-15T06:33:35;96601.34;;;12.05;70.30
15489;BME280;7846;48.830;9.116;2023-01-15T06:36:21;96605.78;;;12.05;71.40
15489;BME280;7846;48.830;9.116;2023-01-15T06:38:48;96610.63;;;11.67;71.53
15489;BME280;7846;48.830;9.116;2023-01-15T06:41:17;96639.03;;;11.71;71.09
15489;BME280;7846;48.830;9.116;2023-01-15T06:44:01;96624.47;;;11.41;70.93
15489;BME280;7846;48.830;9.116;2023-01-15T06:46:50;96636.50;;;11.50;70.96
15489;BME280;7846;48.830;9.116;2023-01-15T06:49:35;96645.41;;;11.21;72.31
15489;BME280;7846;48.830;9.116;2023-01-15T06:52:01;96640.72;;;10.95;73.17
15489;BME280;7846;48.830;9.116;2023-01-15T06:54:27;96658.44;;;10.86;73.16
15489;BME280;7846;48.830;9.116;2023-01-15T06:56:52;96649.28;;;10.82;73.39
15489;BME280;7846;48.830;9.116;2023-01-15T06:59:20;96661.97;;;10.35;72.95
15489;BME280;7846;48.830;9.116;2023-01-15T07:01:46;96675.66;;;10.67;72.46
15489;BME280;7846;48.830;9.116;2023-01-15T07:04:11;96681.31;;;10.49;72.01
15489;BME280;7846;48.830;9.116;2023-01-15T07:06:38;96697.84;;;10.58;72.23
15489;BME280;7846;48.830;9.116;2023-01-15T07:09:03;96702.56;;;10.18;72.52
15489;BME280;7846;48.830;9.116;2023-01-15T07:11:29;96720.81;;;10.34;72.22
15489;BME280;7846;48.830;9.116;2023-01-15T07:13:54;96709.28;;;10.21;72.33
15489;BME280;7846;48.830;9.116;2023-01-15T07:16:31;96729.44;;;10.43;72.37
15489;BME280;7846;48.830;9.116;2023-01-15T07:18:56;96710.03;;;10.29;72.25
15489;BME280;7846;48.830;9.116;2023-01-15T07:21:22;96729.81;;;10.25;71.33
15489;BME280;7846;48.830;9.116;2023-01-15T07:23:48;96721.53;;;10.43;71.51
15489;BME280;7846;48.830;9.116;2023-01-15T07:26:13;96732.31;;;10.33;72.13
15489;BME280;7846;48.830;9.116;2023-01-15T07:28:39;96725.53;;;10.39;71.29
15489;BME280;7846;48.830;9.116;2023-01-15T07:31:04;96740.13;;;10.41;71.30
15489;BME280;7846;48.830;9.116;2023-01-15T07:33:30;96737.88;;;10.38;70.69
15489;BME280;7846;48.830;9.116;2023-01-15T07:35:56;96739.38;;;10.62;70.24
15489;BME280;7846;48.830;9.116;2023-01-15T07:38:22;96752.28;;;10.57;70.42
15489;BME280;7846;48.830;9.116;2023-01-15T07:40:47;96752.19;;;10.36;70.12
15489;BME280;7846;48.830;9.116;2023-01-15T07:43:35;96751.66;;;10.26;69.78
15489;BME280;7846;48.830;9.116;2023-01-15T07:46:20;96737.84;;;10.24;70.04
15489;BME280;7846;48.830;9.116;2023-01-15T07:49:07;96738.97;;;10.80;69.57
15489;BME280;7846;48.830;9.116;2023-01-15T07:51:52;96751.09;;;10.30;69.81
15489;BME280;7846;48.830;9.116;2023-01-15T07:54:18;96763.50;;;10.07;70.13
15489;BME280;7846;48.830;9.116;2023-01-15T07:56:43;96759.00;;;10.30;70.12
15489;BME280;7846;48.830;9.116;2023-01-15T07:59:08;96757.56;;;10.43;69.34
15489;BME280;7846;48.830;9.116;2023-01-15T08:01:35;96777.34;;;10.38;68.89
15489;BME280;7846;48.830;9.116;2023-01-15T08:04:00;96786.50;;;10.43;69.93
15489;BME280;7846;48.830;9.116;2023-01-15T08:06:26;96782.66;;;10.60;69.30
15489;BME280;7846;48.830;9.116;2023-01-15T08:08:53;96787.38;;;10.64;69.11
15489;BME280;7846;48.830;9.116;2023-01-15T08:11:18;96806.88;;;10.55;69.20
15489;BME280;7846;48.830;9.116;2023-01-15T08:14:02;96812.44;;;10.31;69.17
15489;BME280;7846;48.830;9.116;2023-01-15T08:16:46;96803.25;;;10.27;69.70
15489;BME280;7846;48.830;9.116;2023-01-15T08:19:12;96831.34;;;10.26;68.95
15489;BME280;7846;48.830;9.116;2023-01-15T08:21:38;96820.03;;;10.40;68.92
15489;BME280;7846;48.830;9.116;2023-01-15T08:24:04;96819.22;;;10.40;68.58
15489;BME280;7846;48.830;9.116;2023-01-15T08:26:29;96807.53;;;10.43;68.75
15489;BME280;7846;48.830;9.116;2023-01-15T08:28:55;96820.50;;;10.44;68.68
15489;BME280;7846;48.830;9.116;2023-01-15T08:31:20;96808.19;;;10.07;68.71
15489;BME280;7846;48.830;9.116;2023-01-15T08:33:46;96826.84;;;10.12;68.32
15489;BME280;7846;48.830;9.116;2023-01-15T08:36:12;96835.72;;;9.96;68.48
15489;BME280;7846;48.830;9.116;2023-01-15T08:38:38;96859.50;;;10.03;68.32
15489;BME280;7846;48.830;9.116;2023-01-15T08:41:04;96853.38;;;9.87;68.07
15489;BME280;7846;48.830;9.116;2023-01-15T08:43:31;96840.75;;;10.21;68.25
15489;BME280;7846;48.830;9.116;2023-01-15T08:45:58;96852.34;;;10.11;68.19
15489;BME280;7846;48.830;9.116;2023-01-15T08:48:27;96835.28;;;10.07;67.95
15489;BME280;7846;48.830;9.116;2023-01-15T08:50:52;96866.38;;;10.27;67.90
15489;BME280;7846;48.830;9.116;2023-01-15T08:53:18;96864.31;;;10.14;68.52
15489;BME280;7846;48.830;9.116;2023-01-15T08:55:46;96872.03;;;10.15;68.56
15489;BME280;7846;48.830;9.116;2023-01-15T08:58:13;96877.88;;;10.26;68.68
15489;BME280;7846;48.830;9.116;2023-01-15T09:00:42;96875.13;;;10.42;68.57
15489;BME280;7846;48.830;9.116;2023-01-15T09:03:13;96882.72;;;10.14;68.60
15489;BME280;7846;48.830;9.116;2023-01-15T09:05:38;96889.34;;;10.10;68.47
15489;BME280;7846;48.830;9.116;2023-01-15T09:08:05;96887.28;;;10.20;68.24
15489;BME280;7846;48.830;9.116;2023-01-15T09:10:31;96880.41;;;9.96;68.20
15489;BME280;7846;48.830;9.116;2023-01-15T09:12:58;96881.84;;;10.22;68.30
15489;BME280;7846;48.830;9.116;2023-01-15T09:15:24;96888.41;;;10.26;67.96
15489;BME280;7846;48.830;9.116;2023-01-15T09:17:50;96894.72;;;10.16;68.11
15489;BME280;7846;48.830;9.116;2023-01-15T09:20:15;96909.44;;;10.26;67.96
15489;BME280;7846;48.830;9.116;2023-01-15T09:22:40;96905.13;;;10.33;67.60
15489;BME280;7846;48.830;9.116;2023-01-15T09:25:06;96906.16;;;10.47;68.05
15489;BME280;7846;48.830;9.116;2023-01-15T09:27:32;96924.47;;;10.17;68.25
15489;BME280;7846;48.830;9.116;2023-01-15T09:29:58;96942.59;;;10.35;68.12
15489;BME280;7846;48.830;9.116;2023-01-15T09:32:23;96952.38;;;10.18;67.72
15489;BME280;7846;48.830;9.116;2023-01-15T09:34:49;96956.25;;;10.30;67.47
15489;BME280;7846;48.830;9.116;2023-01-15T09:37:15;96963.38;;;10.45;66.58
15489;BME280;7846;48.830;9.116;2023-01-15T09:39:41;96980.56;;;10.09;67.78
15489;BME280;7846;48.830;9.116;2023-01-15T09:47:58;96959.72;;;10.69;66.84
15489;BME280;7846;48.830;9.116;2023-01-15T09:50:55;96955.56;;;10.36;66.19
15489;BME280;7846;48.830;9.116;2023-01-15T09:53:37;96963.78;;;10.33;67.32
15489;BME280;7846;48.830;9.116;2023-01-15T09:56:15;96968.47;;;10.46;67.30
15489;BME280;7846;48.830;9.116;2023-01-15T09:58:44;96967.03;;;9.89;67.05
15489;BME280;7846;48.830;9.116;2023-01-15T10:01:20;96984.06;;;10.02;67.01
15489;BME280;7846;48.830;9.116;2023-01-15T10:04:08;96995.59;;;10.24;66.96
15489;BME280;7846;48.830;9.116;2023-01-15T10:06:43;97023.19;;;9.97;67.54
15489;BME280;7846;48.830;9.116;2023-01-15T10:09:16;97000.94;;;10.07;66.93
15489;BME280;7846;48.830;9.116;2023-01-15T10:11:51;96999.63;;;10.34;67.07
15489;BME280;7846;48.830;9.116;2023-01-15T10:14:56;97000.47;;;10.04;67.11
15489;BME280;7846;48.830;9.116;2023-01-15T10:17:55;97012.72;;;10.43;66.68
15489;BME280;7846;48.830;9.116;2023-01-15T10:20:57;97008.97;;;10.37;67.16
15489;BME280;7846;48.830;9.116;2023-01-15T10:26:32;97017.28;;;10.26;67.26
15489;BME280;7846;48.830;9.116;2023-01-15T10:31:53;97034.13;;;9.77;67.33
15489;BME280;7846;48.830;9.116;2023-01-15T10:34:33;97033.03;;;9.63;68.26
15489;BME280;7846;48.830;9.116;2023-01-15T10:40:14;97048.50;;;9.89;67.38
15489;BME280;7846;48.830;9.116;2023-01-15T10:42:52;97043.31;;;9.34;68.85
15489;BME280;7846;48.830;9.116;2023-01-15T10:45:23;97069.81;;;8.91;68.99
15489;BME280;7846;48.830;9.116;2023-01-15T10:47:55;97085.22;;;8.78;69.91
15489;BME280;7846;48.830;9.116;2023-01-15T10:50:25;97074.56;;;8.63;70.00
15489;BME280;7846;48.830;9.116;2023-01-15T10:55:27;97075.41;;;8.80;69.95
15489;BME280;7846;48.830;9.116;2023-01-15T10:58:24;97084.25;;;8.63;69.99
15489;BME280;7846;48.830;9.116;2023-01-15T11:01:00;97072.44;;;8.67;70.27
15489;BME280;7846;48.830;9.116;2023-01-15T11:03:36;97067.50;;;8.56;70.16
15489;BME280;7846;48.830;9.116;2023-01-15T11:06:03;97059.16;;;8.52;70.11
15489;BME280;7846;48.830;9.116;2023-01-15T11:08:30;97078.31;;;8.44;69.64
15489;BME280;7846;48.830;9.116;2023-01-15T11:11:08;97092.44;;;8.60;69.52
15489;BME280;7846;48.830;9.116;2023-01-15T11:13:39;97082.13;;;7.99;69.96
15489;BME280;7846;48.830;9.116;2023-01-15T11:16:24;97087.50;;;8.40;69.70
15489;BME280;7846;48.830;9.116;2023-01-15T11:19:28;97108.03;;;8.53;69.08
15489;BME280;7846;48.830;9.116;2023-01-15T11:22:12;97093.84;;;8.30;69.15
15489;BME280;7846;48.830;9.116;2023-01-15T11:24:54;97096.66;;;8.36;69.19
15489;BME280;7846;48.830;9.116;2023-01-15T11:27:25;97110.09;;;8.41;69.55
15489;BME280;7846;48.830;9.116;2023-01-15T11:29:54;97107.44;;;8.33;69.20
15489;BME280;7846;48.830;9.116;2023-01-15T11:32:33;97117.53;;;8.54;69.31
15489;BME280;7846;48.830;9.116;2023-01-15T11:37:26;97117.91;;;8.17;69.59
15489;BME280;7846;48.830;9.116;2023-01-15T11:39:55;97114.59;;;8.15;70.09
15489;BME280;7846;48.830;9.116;2023-01-15T11:42:22;97128.19;;;8.02;69.46
15489;BME280;7846;48.830;9.116;2023-01-15T11:45:17;97109.47;;;8.47;69.16
15489;BME280;7846;48.830;9.116;2023-01-15T11:48:13;97106.69;;;8.41;69.27
15489;BME280;7846;48.830;9.116;2023-01-15T11:51:07;97100.56;;;8.32;69.23
15489;BME280;7846;48.830;9.116;2023-01-15T11:53:43;97093.69;;;8.31;68.91
15489;BME280;7846;48.830;9.116;2023-01-15T11:56:23;97100.06;;;8.29;69.11
15489;BME280;7846;48.830;9.116;2023-01-15T11:58:53;97093.00;;;8.13;69.60
15489;BME280;7846;48.830;9.116;2023-01-15T12:01:22;97106.94;;;8.30;68.66
15489;BME280;7846;48.830;9.116;2023-01-15T12:03:52;97099.38;;;8.18;68.74
15489;BME280;7846;48.830;9.116;2023-01-15T12:06:20;97102.91;;;8.43;68.08
15489;BME280;7846;48.830;9.116;2023-01-15T12:14:27;97105.72;;;8.50;67.25
15489;BME280;7846;48.830;9.116;2023-01-15T12:17:04;97108.72;;;8.13;67.69
15489;BME280;7846;48.830;9.116;2023-01-15T12:19:41;97101.94;;;8.44;67.87
15489;BME280;7846;48.830;9.116;2023-01-15T12:27:55;97119.13;;;8.39;66.50
15489;BME280;7846;48.830;9.116;2023-01-15T12:30:40;97108.03;;;8.61;66.33
15489;BME280;7846;48.830;9.116;2023-01-15T12:33:22;97076.06;;;8.66;65.56
15489;BME280;7846;48.830;9.116;2023-01-15T12:35:55;97082.94;;;8.59;66.09
15489;BME280;7846;48.830;9.116;2023-01-15T12:41:25;97068.50;;;8.55;65.53
15489;BME280;7846;48.830;9.116;2023-01-15T12:44:15;97085.06;;;8.96;64.67
15489;BME280;7846;48.830;9.116;2023-01-15T12:47:05;97085.88;;;9.21;63.76
15489;BME280;7846;48.830;9.116;2023-01-15T12:50:01;97089.16;;;9.07;63.87
15489;BME280;7846;48.830;9.116;2023-01-15T12:52:32;97089.63;;;9.18;63.22
15489;BME280;7846;48.830;9.116;2023-01-15T12:55:18;97101.78;;;9.28;62.61
15489;BME280;7846;48.830;9.116;2023-01-15T12:57:49;97094.34;;;9.48;62.59
15489;BME280;7846;48.830;9.116;2023-01-15T13:00:26;97103.91;;;9.32;62.76
15489;BME280;7846;48.830;9.116;2023-01-15T13:03:04;97110.34;;;9.05;62.60
15489;BME280;7846;48.830;9.116;2023-01-15T13:06:01;97117.66;;;9.34;61.85
15489;BME280;7846;48.830;9.116;2023-01-15T13:08:36;97118.63;;;9.41;61.50
15489;BME280;7846;48.830;9.116;2023-01-15T13:11:02;97108.63;;;9.37;61.41
15489;BME280;7846;48.830;9.116;2023-01-15T13:13:37;97112.72;;;9.48;60.83
15489;BME280;7846;48.830;9.116;2023-01-15T13:16:18;97120.78;;;9.38;60.93
15489;BME280;7846;48.830;9.116;2023-01-15T13:19:18;97131.50;;;9.20;61.22
15489;BME280;7846;48.830;9.116;2023-01-15T13:21:48;97134.09;;;9.28;61.91
15489;BME280;7846;48.830;9.116;2023-01-15T13:24:50;97111.53;;;9.66;61.08
15489;BME280;7846;48.830;9.116;2023-01-15T13:27:28;97123.56;;;9.44;61.24
15489;BME280;7846;48.830;9.116;2023-01-15T13:32:50;97130.19;;;9.88;60.27
15489;BME280;7846;48.830;9.116;2023-01-15T13:35:30;97131.81;;;10.36;59.70
15489;BME280;7846;48.830;9.116;2023-01-15T13:38:03;97139.50;;;10.38;59.25
15489;BME280;7846;48.830;9.116;2023-01-15T13:43:00;97138.88;;;11.28;57.21
15489;BME280;7846;48.830;9.116;2023-01-15T13:45:40;97136.50;;;11.85;54.71
15489;BME280;7846;48.830;9.116;2023-01-15T13:48:20;97141.63;;;12.38;53.84
15489;BME280;7846;48.830;9.116;2023-01-15T13:53:25;97159.53;;;12.79;51.64
15489;BME280;7846;48.830;9.116;2023-01-15T13:55:56;97162.38;;;12.77;52.43
15489;BME280;7846;48.830;9.116;2023-01-15T13:58:27;97156.94;;;12.43;51.90
15489;BME280;7846;48.830;9.116;2023-01-15T14:04:34;97148.50;;;12.03;51.78
15489;BME280;7846;48.830;9.116;2023-01-15T14:06:48;97155.28;;;12.99;51.17
15489;BME280;7846;48.830;9.116;2023-01-15T14:22:34;97163.72;;;12.88;48.71
15489;BME280;7846;48.830;9.116;2023-01-15T14:25:25;97184.94;;;12.58;49.00
15489;BME280;7846;48.830;9.116;2023-01-15T14:31:10;97171.66;;;12.37;49.75
15489;BME280;7846;48.830;9.116;2023-01-15T14:34:10;97178.03;;;12.43;49.98
15489;BME280;7846;48.830;9.116;2023-01-15T14:37:00;97167.81;;;12.54;49.43
15489;BME280;7846;48.830;9.116;2023-01-15T14:39:40;97170.25;;;12.92;48.32
15489;BME280;7846;48.830;9.116;2023-01-15T14:42:26;97170.25;;;12.92;48.45
15489;BME280;7846;48.830;9.116;2023-01-15T14:47:47;97159.81;;;12.48;48.62
15489;BME280;7846;48.830;9.116;2023-01-15T14:53:26;97145.78;;;12.62;48.74
15489;BME280;7846;48.830;9.116;2023-01-15T14:56:29;97163.03;;;11.69;51.31